createdAt,value
2023-05-02T00:00:17.268Z,53.04
2023-05-02T00:04:20.158Z,52.87
2023-05-02T00:08:24.519Z,54.37
2023-05-02T00:12:26.035Z,54.09
2023-05-02T00:16:29.125Z,54.83
2023-05-02T00:20:29.837Z,55.03
2023-05-02T00:24:30.630Z,55.27
2023-05-02T00:28:33.512Z,55.57
2023-05-02T00:32:39.570Z,55.58
2023-05-02T00:36:43.856Z,55.72
2023-05-02T00:40:48.147Z,55.83
2023-05-02T00:44:50.909Z,57.91
2023-05-02T00:48:58.259Z,57.86
2023-05-02T00:52:58.002Z,57.88
2023-05-02T00:56:59.781Z,57.26
2023-05-02T01:01:16.768Z,57.64
2023-05-02T01:05:33.817Z,58.00
2023-05-02T01:09:42.902Z,59.16
2023-05-02T01:13:45.770Z,58.55
2023-05-02T01:17:46.844Z,59.27
2023-05-02T01:22:24.575Z,58.37
2023-05-02T01:26:48.682Z,58.06
2023-05-02T01:30:51.913Z,57.90
2023-05-02T01:34:55.777Z,58.36
2023-05-02T01:38:58.279Z,58.77
2023-05-02T01:42:59.954Z,58.29
2023-05-02T01:47:08.195Z,58.58
2023-05-02T01:51:10.031Z,59.67
2023-05-02T01:55:13.341Z,59.86
2023-05-02T01:59:19.944Z,59.46
2023-05-02T02:03:22.898Z,60.35
2023-05-02T02:07:27.400Z,61.06
2023-05-02T02:11:35.000Z,61.53
2023-05-02T02:15:37.668Z,61.55
2023-05-02T02:19:45.695Z,61.73
2023-05-02T02:23:50.036Z,61.28
2023-05-02T02:28:00.145Z,61.08
2023-05-02T02:32:01.483Z,60.79
2023-05-02T02:36:10.002Z,59.15
2023-05-02T02:40:15.397Z,60.04
2023-05-02T02:44:25.068Z,60.64
2023-05-02T02:48:29.069Z,60.47
2023-05-02T02:52:47.309Z,60.00
2023-05-02T02:56:59.729Z,59.17
2023-05-02T03:01:01.391Z,58.95
2023-05-02T03:05:03.739Z,58.71
2023-05-02T03:09:06.588Z,59.17
2023-05-02T03:13:06.990Z,61.13
2023-05-02T03:17:08.571Z,62.02
2023-05-02T03:27:02.014Z,65.21
2023-05-02T03:31:28.856Z,66.96
2023-05-02T03:35:35.177Z,67.87
2023-05-02T03:39:37.803Z,69.47
2023-05-02T03:43:40.537Z,71.42
2023-05-02T03:47:41.119Z,73.46
2023-05-02T03:51:42.240Z,74.06
2023-05-02T03:55:43.059Z,71.84
2023-05-02T03:59:48.367Z,69.13
2023-05-02T04:03:51.176Z,67.33
2023-05-02T04:07:54.550Z,66.62
2023-05-02T04:11:54.573Z,65.67
2023-05-02T04:15:57.621Z,64.74
2023-05-02T04:20:00.053Z,63.62
2023-05-02T04:24:03.951Z,62.03
2023-05-02T04:28:06.456Z,61.02
2023-05-02T04:32:09.478Z,60.10
2023-05-02T04:36:09.539Z,59.92
2023-05-02T04:40:12.807Z,58.42
2023-05-02T04:44:15.887Z,56.45
2023-05-02T04:48:19.771Z,53.95
2023-05-02T04:52:20.743Z,52.99
2023-05-02T04:56:21.796Z,52.71
2023-05-02T05:00:22.973Z,52.60
2023-05-02T05:04:27.120Z,54.04
2023-05-02T05:08:28.582Z,52.42
2023-05-02T05:12:29.449Z,51.57
2023-05-02T05:16:29.071Z,51.09
2023-05-02T05:20:33.682Z,51.03
2023-05-02T05:24:34.191Z,49.32
2023-05-02T05:28:35.294Z,46.41
2023-05-02T05:32:37.451Z,46.63
2023-05-02T05:36:42.265Z,45.91
2023-05-02T05:40:41.987Z,44.89
2023-05-02T05:44:42.734Z,44.22
2023-05-02T05:48:43.712Z,44.70
2023-05-02T05:52:46.983Z,43.33
2023-05-02T05:56:54.180Z,44.24
2023-05-02T06:00:55.530Z,45.86
2023-05-02T06:04:56.090Z,47.14
2023-05-02T06:08:59.164Z,47.77
2023-05-02T06:13:04.326Z,46.53
2023-05-02T06:17:06.619Z,46.22
2023-05-02T06:21:07.329Z,45.79
2023-05-02T06:25:11.271Z,45.89
2023-05-02T06:29:10.638Z,46.23
2023-05-02T06:33:12.130Z,46.99
2023-05-02T06:37:11.793Z,45.61
2023-05-02T06:41:18.143Z,45.47
2023-05-02T06:45:18.070Z,44.06
2023-05-02T06:49:17.686Z,43.16
2023-05-02T06:53:18.018Z,43.36
2023-05-02T06:57:21.527Z,43.03
2023-05-02T07:01:22.537Z,43.55
2023-05-02T07:05:23.430Z,42.80
2023-05-02T07:09:30.535Z,42.30
2023-05-02T07:13:44.611Z,42.73
2023-05-02T07:17:48.472Z,43.55
2023-05-02T07:22:17.074Z,43.28
2023-05-02T07:26:23.299Z,43.75
2023-05-02T07:35:17.930Z,44.13
2023-05-02T07:39:39.570Z,44.74
2023-05-02T07:43:46.436Z,43.35
2023-05-02T07:47:54.822Z,43.52
2023-05-02T07:52:03.486Z,43.18
2023-05-02T07:56:03.805Z,42.53
2023-05-02T08:00:10.330Z,35.60
2023-05-02T08:04:13.201Z,30.41
2023-05-02T08:08:16.012Z,28.12
2023-05-02T08:12:16.124Z,28.07
2023-05-02T08:16:16.266Z,28.20
2023-05-02T08:20:16.688Z,27.45
2023-05-02T08:24:18.874Z,28.10
2023-05-02T08:28:21.651Z,27.66
2023-05-02T08:32:22.641Z,28.22
2023-05-02T08:36:32.364Z,29.05
2023-05-02T08:40:42.077Z,27.98
2023-05-02T08:44:43.216Z,28.44
2023-05-02T08:48:51.302Z,27.58
2023-05-02T08:52:53.363Z,27.97
2023-05-02T08:56:57.436Z,27.18
2023-05-02T09:00:59.552Z,27.30
2023-05-02T09:05:03.214Z,27.10
2023-05-02T09:09:03.743Z,27.70
2023-05-02T09:13:29.570Z,27.51
2023-05-02T09:17:43.786Z,27.41
2023-05-02T09:21:44.242Z,26.81
2023-05-02T09:25:46.258Z,26.66
2023-05-02T09:30:05.017Z,26.11
2023-05-02T09:34:10.955Z,26.02
2023-05-02T09:38:21.417Z,26.14
2023-05-02T09:42:33.376Z,26.58
2023-05-02T09:46:42.530Z,26.25
2023-05-02T09:50:45.532Z,25.34
2023-05-02T09:54:46.407Z,24.76
2023-05-02T09:58:47.255Z,24.69
2023-05-02T10:02:50.313Z,23.84
2023-05-02T10:06:53.717Z,23.81
2023-05-02T10:10:57.275Z,24.52
2023-05-02T10:15:00.169Z,23.41
2023-05-02T10:19:02.272Z,23.03
2023-05-02T10:23:09.354Z,24.09
2023-05-02T10:27:10.080Z,23.19
2023-05-02T10:31:12.443Z,23.72
2023-05-02T10:35:12.788Z,23.55
2023-05-02T10:39:14.970Z,23.65
2023-05-02T10:43:17.870Z,23.52
2023-05-02T10:47:22.770Z,23.94
2023-05-02T10:51:33.041Z,23.94
2023-05-02T10:55:35.556Z,23.12
2023-05-02T10:59:37.817Z,23.22
2023-05-02T11:03:56.037Z,23.20
2023-05-02T11:08:10.935Z,22.34
2023-05-02T11:12:15.890Z,23.29
2023-05-02T11:16:15.689Z,24.11
2023-05-02T11:20:31.089Z,24.26
2023-05-02T11:24:41.919Z,24.10
2023-05-02T11:29:01.010Z,23.31
2023-05-02T11:33:20.104Z,23.25
2023-05-02T11:37:24.988Z,23.53
2023-05-02T11:41:25.033Z,23.70
2023-05-02T11:45:34.540Z,22.43
2023-05-02T11:49:49.449Z,23.08
2023-05-02T11:53:49.499Z,22.28
2023-05-02T11:57:50.668Z,22.06
2023-05-02T12:01:53.663Z,22.15
2023-05-02T12:05:54.169Z,22.71
2023-05-02T12:09:54.701Z,22.11
2023-05-02T12:13:54.702Z,22.31
2023-05-02T12:18:01.788Z,22.23
2023-05-02T12:22:03.964Z,23.12
2023-05-02T12:26:19.573Z,22.49
2023-05-02T12:30:28.124Z,22.74
2023-05-02T12:34:37.782Z,23.50
2023-05-02T12:38:37.919Z,22.42
2023-05-02T12:42:41.616Z,22.84
2023-05-02T12:47:04.766Z,22.74
2023-05-02T12:51:07.439Z,22.65
2023-05-02T12:55:24.114Z,23.18
2023-05-02T12:59:28.676Z,24.01
2023-05-02T13:03:32.399Z,23.35
2023-05-02T13:07:35.129Z,23.21
2023-05-02T13:11:37.260Z,21.92
2023-05-02T13:15:45.621Z,21.96
2023-05-02T13:19:57.780Z,21.96
2023-05-02T13:24:08.579Z,22.20
2023-05-02T13:28:08.724Z,22.70
2023-05-02T13:32:08.762Z,22.76
2023-05-02T13:36:09.127Z,23.26
2023-05-02T13:40:12.984Z,23.57
2023-05-02T13:44:14.391Z,23.15
2023-05-02T13:48:15.390Z,23.27
2023-05-02T13:52:15.300Z,23.75
2023-05-02T13:56:21.538Z,24.30
2023-05-02T14:00:21.642Z,23.95
2023-05-02T14:04:22.998Z,24.28
2023-05-02T14:08:26.941Z,24.44
2023-05-02T14:12:28.962Z,23.96
2023-05-02T14:16:29.836Z,24.56
2023-05-02T14:20:29.902Z,23.76
2023-05-02T14:24:32.793Z,24.75
2023-05-02T14:28:38.295Z,24.90
2023-05-02T14:32:38.872Z,24.32
2023-05-02T14:36:38.146Z,24.06
2023-05-02T14:40:40.570Z,24.74
2023-05-02T14:44:42.083Z,23.89
2023-05-02T14:48:41.572Z,23.91
2023-05-02T14:52:41.264Z,23.49
2023-05-02T14:56:41.115Z,24.41
2023-05-02T15:00:43.203Z,24.19
2023-05-02T15:04:43.214Z,24.85
2023-05-02T15:08:52.291Z,24.54
2023-05-02T15:12:52.613Z,24.96
2023-05-02T15:16:54.875Z,25.07
2023-05-02T15:20:54.389Z,25.61
2023-05-02T15:24:54.672Z,25.16
2023-05-02T15:28:55.556Z,25.44
2023-05-02T15:33:01.318Z,25.54
2023-05-02T15:37:01.995Z,26.62
2023-05-02T15:41:02.715Z,25.93
2023-05-02T15:45:03.137Z,26.12
2023-05-02T15:49:06.192Z,26.98
2023-05-02T15:53:09.250Z,27.00
2023-05-02T15:57:10.074Z,26.89
2023-05-02T16:01:13.195Z,27.71
2023-05-02T16:05:15.624Z,27.96
2023-05-02T16:09:16.225Z,28.07
2023-05-02T16:13:17.083Z,28.18
2023-05-02T16:17:18.259Z,28.40
2023-05-02T16:21:20.454Z,28.61
2023-05-02T16:25:20.562Z,29.05
2023-05-02T16:29:21.065Z,28.89
2023-05-02T16:33:25.227Z,28.52
2023-05-02T16:37:27.657Z,28.82
2023-05-02T16:41:44.198Z,29.64
2023-05-02T16:45:47.038Z,30.08
2023-05-02T16:49:48.015Z,29.66
2023-05-02T16:53:52.107Z,29.94
2023-05-02T16:57:52.473Z,30.18
2023-05-02T17:01:55.672Z,30.60
2023-05-02T17:05:54.814Z,30.14
2023-05-02T17:10:00.565Z,30.54
2023-05-02T17:14:03.748Z,30.76
2023-05-02T17:18:04.197Z,31.26
2023-05-02T17:22:09.781Z,31.76
2023-05-02T17:26:15.798Z,32.26
2023-05-02T17:30:16.548Z,32.53
2023-05-02T17:34:16.847Z,32.87
2023-05-02T17:38:16.915Z,33.11
2023-05-02T17:42:20.832Z,33.13
2023-05-02T17:46:25.121Z,33.10
2023-05-02T17:50:32.906Z,33.38
2023-05-02T17:54:39.133Z,33.57
2023-05-02T17:58:41.352Z,33.87
2023-05-02T18:02:42.064Z,34.33
2023-05-02T18:06:41.914Z,35.33
2023-05-02T18:10:42.697Z,35.56
2023-05-02T18:14:44.493Z,35.52
2023-05-02T18:18:44.379Z,35.47
2023-05-02T18:22:44.753Z,35.33
2023-05-02T18:26:44.785Z,34.96
2023-05-02T18:30:49.003Z,35.31
2023-05-02T18:34:48.825Z,35.26
2023-05-02T18:38:48.463Z,35.28
2023-05-02T18:42:47.904Z,35.39
2023-05-02T18:46:49.099Z,35.98
2023-05-02T18:50:49.629Z,35.86
2023-05-02T18:54:54.396Z,35.87
2023-05-02T18:58:57.057Z,35.92
2023-05-02T19:02:59.685Z,36.04
2023-05-02T19:07:00.151Z,36.08
2023-05-02T19:11:04.296Z,36.86
2023-05-02T19:15:06.531Z,37.09
2023-05-02T19:19:09.368Z,37.17
2023-05-02T19:23:19.785Z,37.54
2023-05-02T19:27:22.887Z,38.01
2023-05-02T19:31:23.374Z,38.35
2023-05-02T19:35:28.376Z,38.59
2023-05-02T19:39:28.524Z,39.17
2023-05-02T19:43:30.168Z,39.77
2023-05-02T19:47:35.499Z,40.07
2023-05-02T19:51:45.442Z,40.14
2023-05-02T19:55:46.453Z,40.37
2023-05-02T19:59:47.231Z,40.54
2023-05-02T20:03:50.875Z,40.30
2023-05-02T20:08:01.160Z,40.37
2023-05-02T20:12:05.890Z,40.46
2023-05-02T20:16:10.500Z,40.41
2023-05-02T20:24:32.597Z,40.67
2023-05-02T20:28:32.709Z,41.00
2023-05-02T20:32:34.737Z,41.05
2023-05-02T20:36:35.154Z,41.41
2023-05-02T20:40:43.964Z,41.69
2023-05-02T20:44:52.377Z,41.91
2023-05-02T20:48:56.418Z,42.22
2023-05-02T20:52:59.312Z,42.19
2023-05-02T20:57:03.331Z,42.29
2023-05-02T21:01:05.115Z,42.46
2023-05-02T21:05:07.982Z,42.30
2023-05-02T21:09:09.473Z,42.52
2023-05-02T21:13:14.091Z,42.49
2023-05-02T21:17:13.834Z,42.32
2023-05-02T21:21:15.540Z,42.59
2023-05-02T21:25:18.887Z,42.59
2023-05-02T21:29:21.459Z,42.72
2023-05-02T21:33:21.928Z,42.84
2023-05-02T21:37:26.152Z,43.00
2023-05-02T21:41:30.656Z,43.12
2023-05-02T21:45:35.426Z,43.20
2023-05-02T21:49:38.403Z,43.71
2023-05-02T21:53:42.612Z,44.22
2023-05-02T21:57:43.980Z,44.27
2023-05-02T22:01:46.242Z,44.45
2023-05-02T22:05:50.928Z,43.94
2023-05-02T22:09:58.060Z,43.42
2023-05-02T22:14:00.675Z,43.74
2023-05-02T22:18:07.105Z,44.09
2023-05-02T22:22:11.430Z,44.13
2023-05-02T22:26:14.994Z,44.72
2023-05-02T22:30:14.963Z,44.47
2023-05-02T22:34:20.197Z,44.68
2023-05-02T22:38:22.658Z,44.50
2023-05-02T22:42:23.314Z,44.89
2023-05-02T22:46:23.255Z,46.10
2023-05-02T22:50:26.639Z,46.33
2023-05-02T22:54:27.362Z,46.10
2023-05-02T22:58:28.022Z,46.26
2023-05-02T23:02:33.699Z,46.51
2023-05-02T23:06:42.701Z,46.48
2023-05-02T23:10:44.178Z,46.62
2023-05-02T23:14:46.784Z,46.96
2023-05-02T23:18:50.432Z,47.92
2023-05-02T23:22:52.295Z,48.85
2023-05-02T23:26:57.497Z,49.52
2023-05-02T23:31:04.852Z,50.33
2023-05-02T23:35:05.921Z,50.57
2023-05-02T23:39:11.345Z,51.21
2023-05-02T23:43:14.234Z,52.33
2023-05-02T23:47:17.608Z,52.64
2023-05-02T23:51:31.614Z,52.83
2023-05-02T23:55:38.916Z,53.69
